createdAt,value
2017-08-18T00:00:19.298Z,59.10
2017-08-18T00:02:46.794Z,59.10
2017-08-18T00:05:14.311Z,59.10
2017-08-18T00:07:41.810Z,59.10
2017-08-18T00:10:09.325Z,59.10
2017-08-18T00:12:36.827Z,59.30
2017-08-18T00:15:04.339Z,59.30
2017-08-18T00:17:31.834Z,59.40
2017-08-18T00:20:00.118Z,59.30
2017-08-18T00:22:27.614Z,59.30
2017-08-18T00:24:55.145Z,59.50
2017-08-18T00:27:22.638Z,59.50
2017-08-18T00:29:50.143Z,59.30
2017-08-18T00:32:18.422Z,59.50
2017-08-18T00:34:46.686Z,59.60
2017-08-18T00:37:14.287Z,59.50
2017-08-18T00:39:41.790Z,59.60
2017-08-18T00:42:09.310Z,59.60
2017-08-18T00:44:36.813Z,59.50
2017-08-18T00:47:04.343Z,59.60
2017-08-18T00:49:31.853Z,59.70
2017-08-18T00:52:00.134Z,59.90
2017-08-18T00:54:28.397Z,60.00
2017-08-18T00:56:55.961Z,59.90
2017-08-18T00:59:24.230Z,60.90
2017-08-18T01:01:51.725Z,60.10
2017-08-18T01:04:19.249Z,60.10
2017-08-18T01:06:46.747Z,60.20
2017-08-18T01:09:14.266Z,60.30
2017-08-18T01:11:41.762Z,60.30
2017-08-18T01:14:09.270Z,60.30
2017-08-18T01:16:36.767Z,60.00
2017-08-18T01:19:04.286Z,60.30
2017-08-18T01:21:31.781Z,60.50
2017-08-18T01:23:59.303Z,60.50
2017-08-18T01:26:26.803Z,60.50
2017-08-18T01:28:54.342Z,60.50
2017-08-18T01:31:21.837Z,60.70
2017-08-18T01:33:49.335Z,60.70
2017-08-18T01:36:16.866Z,60.70
2017-08-18T01:38:44.378Z,60.90
2017-08-18T01:41:11.895Z,60.80
2017-08-18T01:43:39.390Z,61.00
2017-08-18T01:46:06.910Z,61.10
2017-08-18T01:48:34.414Z,61.20
2017-08-18T01:51:02.706Z,61.50
2017-08-18T01:53:30.978Z,61.10
2017-08-18T01:55:59.265Z,61.30
2017-08-18T01:58:26.770Z,61.10
2017-08-18T02:00:54.288Z,61.40
2017-08-18T02:03:21.786Z,61.60
2017-08-18T02:05:49.277Z,61.60
2017-08-18T02:08:16.802Z,61.60
2017-08-18T02:10:44.306Z,61.40
2017-08-18T02:13:12.594Z,62.30
2017-08-18T02:15:40.858Z,61.60
2017-08-18T02:18:09.147Z,61.50
2017-08-18T02:20:36.642Z,61.50
2017-08-18T02:23:04.174Z,61.60
2017-08-18T02:25:31.674Z,61.60
2017-08-18T02:27:59.189Z,61.60
2017-08-18T02:30:26.705Z,61.70
2017-08-18T02:32:54.197Z,61.70
2017-08-18T02:35:22.487Z,61.80
2017-08-18T02:37:49.983Z,61.70
2017-08-18T02:40:17.510Z,61.80
2017-08-18T02:42:45.006Z,61.70
2017-08-18T02:45:12.526Z,61.70
2017-08-18T02:47:40.037Z,61.60
2017-08-18T02:50:07.570Z,61.50
2017-08-18T02:52:35.070Z,61.70
2017-08-18T02:55:03.340Z,61.20
2017-08-18T02:57:30.858Z,61.50
2017-08-18T02:59:58.356Z,61.60
2017-08-18T03:02:25.879Z,61.60
2017-08-18T03:04:53.386Z,61.80
2017-08-18T03:07:21.674Z,62.60
2017-08-18T03:09:49.943Z,61.70
2017-08-18T03:12:18.222Z,61.70
2017-08-18T03:14:46.490Z,61.70
2017-08-18T03:17:14.010Z,61.70
2017-08-18T03:19:41.510Z,61.60
2017-08-18T03:22:09.046Z,61.70
2017-08-18T03:24:36.549Z,61.80
2017-08-18T03:27:04.051Z,61.90
2017-08-18T03:29:31.567Z,61.90
2017-08-18T03:31:59.059Z,61.80
2017-08-18T03:34:26.595Z,61.60
2017-08-18T03:36:54.097Z,61.70
2017-08-18T03:39:21.620Z,61.90
2017-08-18T03:41:49.119Z,61.80
2017-08-18T03:44:16.634Z,61.90
2017-08-18T03:46:44.139Z,62.00
2017-08-18T03:49:11.664Z,62.10
2017-08-18T03:51:39.162Z,62.00
2017-08-18T03:54:06.686Z,62.00
2017-08-18T03:56:34.190Z,62.00
2017-08-18T03:59:01.694Z,62.00
2017-08-18T04:01:29.210Z,62.00
2017-08-18T04:03:56.714Z,62.10
2017-08-18T04:06:24.227Z,62.00
2017-08-18T04:08:51.731Z,62.10
2017-08-18T04:11:19.254Z,62.20
2017-08-18T04:13:47.518Z,62.10
2017-08-18T04:16:15.040Z,62.10
2017-08-18T04:18:42.533Z,62.20
2017-08-18T04:21:10.046Z,62.10
2017-08-18T04:23:37.554Z,62.10
2017-08-18T04:26:05.074Z,62.10
2017-08-18T04:28:32.590Z,62.10
2017-08-18T04:31:00.871Z,62.10
2017-08-18T04:33:28.394Z,61.90
2017-08-18T04:35:55.898Z,62.10
2017-08-18T04:38:23.414Z,62.20
2017-08-18T04:40:50.914Z,62.00
2017-08-18T04:43:18.430Z,62.00
2017-08-18T04:45:45.934Z,62.90
2017-08-18T04:48:13.464Z,62.20
2017-08-18T04:50:40.975Z,62.20
2017-08-18T04:53:08.514Z,62.10
2017-08-18T04:55:36.027Z,62.10
2017-08-18T04:58:03.543Z,62.20
2017-08-18T05:00:31.074Z,62.40
2017-08-18T05:02:58.570Z,62.50
2017-08-18T05:05:26.082Z,62.60
2017-08-18T05:07:54.370Z,62.70
2017-08-18T05:10:22.663Z,62.70
2017-08-18T05:12:50.170Z,62.70
2017-08-18T05:15:17.686Z,62.80
2017-08-18T05:17:45.185Z,63.00
2017-08-18T05:20:12.732Z,63.00
2017-08-18T05:22:40.238Z,63.20
2017-08-18T05:25:07.767Z,63.10
2017-08-18T05:27:35.264Z,63.10
2017-08-18T05:30:03.562Z,64.30
2017-08-18T05:32:31.082Z,64.30
2017-08-18T05:34:58.586Z,65.50
2017-08-18T05:37:26.109Z,66.00
2017-08-18T05:39:54.375Z,66.80
2017-08-18T05:42:21.903Z,66.60
2017-08-18T05:44:49.407Z,66.70
2017-08-18T05:47:17.706Z,66.90
2017-08-18T05:49:45.205Z,66.90
2017-08-18T05:52:12.723Z,66.70
2017-08-18T05:54:40.226Z,66.40
2017-08-18T05:57:07.759Z,66.20
2017-08-18T05:59:35.268Z,66.10
2017-08-18T06:02:02.762Z,66.10
2017-08-18T06:04:30.302Z,66.10
2017-08-18T06:06:57.819Z,66.20
2017-08-18T06:09:25.341Z,66.00
2017-08-18T06:11:52.838Z,66.20
2017-08-18T06:14:20.434Z,65.80
2017-08-18T06:16:47.940Z,65.80
2017-08-18T06:19:15.462Z,65.70
2017-08-18T06:21:42.986Z,65.40
2017-08-18T06:24:10.506Z,65.10
2017-08-18T06:26:38.020Z,64.50
2017-08-18T06:29:05.535Z,63.70
2017-08-18T06:31:33.030Z,64.20
2017-08-18T06:34:00.557Z,63.10
2017-08-18T06:36:28.049Z,63.10
2017-08-18T06:38:55.557Z,62.90
2017-08-18T06:41:23.085Z,62.20
2017-08-18T06:43:51.354Z,61.90
2017-08-18T06:46:19.642Z,61.40
2017-08-18T06:48:47.149Z,61.30
2017-08-18T06:51:14.661Z,60.90
2017-08-18T06:53:42.939Z,60.00
2017-08-18T06:56:11.223Z,59.70
2017-08-18T06:58:38.722Z,59.70
2017-08-18T07:01:06.240Z,59.60
2017-08-18T07:03:33.742Z,59.40
2017-08-18T07:06:01.284Z,59.60
2017-08-18T07:08:28.781Z,58.90
2017-08-18T07:10:56.286Z,58.60
2017-08-18T07:13:23.805Z,58.20
2017-08-18T07:15:51.318Z,58.00
2017-08-18T07:18:18.838Z,57.30
2017-08-18T07:20:47.119Z,57.00
2017-08-18T07:23:15.402Z,56.90
2017-08-18T07:25:42.903Z,56.90
2017-08-18T07:28:10.418Z,56.40
2017-08-18T07:30:38.691Z,56.30
2017-08-18T07:33:06.975Z,56.00
2017-08-18T07:35:35.238Z,56.40
2017-08-18T07:38:03.522Z,56.30
2017-08-18T07:40:31.026Z,56.20
2017-08-18T07:42:58.551Z,56.50
2017-08-18T07:45:26.051Z,56.70
2017-08-18T07:47:53.552Z,55.80
2017-08-18T07:50:21.830Z,56.50
2017-08-18T07:52:50.090Z,56.50
2017-08-18T07:55:17.606Z,56.50
2017-08-18T07:57:45.103Z,56.20
2017-08-18T08:00:12.623Z,55.70
2017-08-18T08:02:40.113Z,56.30
2017-08-18T08:05:07.631Z,56.00
2017-08-18T08:07:35.129Z,56.20
2017-08-18T08:10:02.658Z,55.80
2017-08-18T08:12:30.170Z,55.60
2017-08-18T08:14:58.446Z,55.40
2017-08-18T08:17:26.735Z,54.80
2017-08-18T08:19:54.997Z,54.30
2017-08-18T08:22:23.285Z,53.30
2017-08-18T08:24:51.555Z,52.80
2017-08-18T08:27:19.862Z,53.00
2017-08-18T08:29:47.354Z,53.00
2017-08-18T08:32:14.870Z,53.10
2017-08-18T08:34:42.365Z,53.00
2017-08-18T08:37:09.909Z,53.20
2017-08-18T08:39:37.414Z,52.90
2017-08-18T08:42:05.698Z,52.30
2017-08-18T08:44:33.982Z,51.40
2017-08-18T08:47:02.250Z,51.20
2017-08-18T08:49:29.768Z,51.10
2017-08-18T08:51:57.266Z,50.30
2017-08-18T08:54:24.794Z,50.10
2017-08-18T08:56:52.285Z,50.70
2017-08-18T08:59:19.810Z,50.60
2017-08-18T09:01:47.306Z,50.20
2017-08-18T09:04:15.616Z,50.70
2017-08-18T09:06:43.126Z,50.20
2017-08-18T09:09:10.658Z,48.70
2017-08-18T09:11:38.158Z,48.90
2017-08-18T09:14:05.662Z,49.10
2017-08-18T09:16:33.186Z,48.60
2017-08-18T09:19:00.686Z,49.10
2017-08-18T09:21:28.205Z,47.70
2017-08-18T09:23:56.478Z,48.70
2017-08-18T09:26:24.003Z,48.70
2017-08-18T09:28:51.507Z,49.00
2017-08-18T09:31:19.037Z,49.20
2017-08-18T09:33:46.546Z,49.00
2017-08-18T09:36:14.057Z,48.70
2017-08-18T09:38:41.558Z,47.80
2017-08-18T09:41:09.086Z,48.00
2017-08-18T09:43:37.353Z,48.40
2017-08-18T09:46:04.901Z,48.70
2017-08-18T09:48:44.251Z,47.80
2017-08-18T09:54:42.072Z,47.20
2017-08-18T09:57:21.454Z,47.70
2017-08-18T09:59:48.949Z,47.70
2017-08-18T10:02:17.233Z,46.10
2017-08-18T10:04:45.522Z,46.40
2017-08-18T10:07:13.022Z,46.30
2017-08-18T10:09:40.546Z,47.30
2017-08-18T10:12:08.062Z,46.00
2017-08-18T10:14:35.594Z,46.80
2017-08-18T10:17:03.098Z,47.00
2017-08-18T10:19:30.626Z,47.30
2017-08-18T10:21:58.133Z,47.50
2017-08-18T10:24:25.681Z,46.30
2017-08-18T10:26:53.189Z,45.30
2017-08-18T10:29:21.458Z,44.50
2017-08-18T10:31:49.750Z,45.40
2017-08-18T10:34:17.260Z,45.40
2017-08-18T10:36:44.781Z,46.00
2017-08-18T10:39:12.293Z,46.10
2017-08-18T10:41:39.818Z,46.20
2017-08-18T10:44:07.321Z,44.10
2017-08-18T10:46:34.840Z,45.10
2017-08-18T10:49:02.345Z,45.00
2017-08-18T10:51:30.646Z,44.80
2017-08-18T10:53:58.166Z,44.80
2017-08-18T10:56:25.698Z,44.80
2017-08-18T10:58:53.197Z,44.60
2017-08-18T11:01:21.510Z,44.10
2017-08-18T11:03:49.027Z,44.10
2017-08-18T11:06:17.302Z,44.10
2017-08-18T11:08:44.815Z,44.40
2017-08-18T11:11:12.311Z,44.20
2017-08-18T11:13:39.847Z,43.80
2017-08-18T11:16:07.353Z,43.40
2017-08-18T11:18:35.650Z,42.50
2017-08-18T11:21:03.166Z,42.50
2017-08-18T11:23:30.695Z,42.30
2017-08-18T11:25:58.206Z,41.90
2017-08-18T11:28:25.727Z,42.40
2017-08-18T11:30:53.227Z,42.90
2017-08-18T11:33:21.522Z,40.70
2017-08-18T11:35:49.027Z,40.70
2017-08-18T11:38:16.543Z,41.80
2017-08-18T11:40:44.058Z,41.80
2017-08-18T11:43:11.583Z,42.60
2017-08-18T11:45:39.098Z,42.70
2017-08-18T11:48:07.366Z,41.70
2017-08-18T11:50:34.887Z,41.60
2017-08-18T11:53:02.386Z,41.60
2017-08-18T11:55:30.677Z,42.70
2017-08-18T11:57:58.179Z,42.60
2017-08-18T12:00:25.716Z,42.00
2017-08-18T12:02:53.223Z,41.10
2017-08-18T12:05:20.746Z,41.70
2017-08-18T12:07:48.258Z,41.80
2017-08-18T12:10:16.542Z,42.20
2017-08-18T12:12:44.803Z,42.40
2017-08-18T12:15:12.334Z,42.40
2017-08-18T12:17:39.850Z,42.50
2017-08-18T12:20:07.387Z,42.40
2017-08-18T12:22:34.902Z,42.10
2017-08-18T12:25:02.436Z,42.00
2017-08-18T12:27:29.953Z,41.70
2017-08-18T12:29:57.450Z,41.50
2017-08-18T12:32:24.979Z,41.50
2017-08-18T12:34:52.474Z,41.60
2017-08-18T12:37:19.995Z,42.10
2017-08-18T12:39:47.494Z,42.30
2017-08-18T12:42:15.010Z,42.30
2017-08-18T12:44:42.514Z,42.50
2017-08-18T12:47:10.054Z,42.00
2017-08-18T12:49:37.558Z,42.20
2017-08-18T12:52:05.074Z,41.90
2017-08-18T12:54:32.575Z,41.90
2017-08-18T12:57:00.098Z,42.00
2017-08-18T12:59:27.595Z,41.20
2017-08-18T13:01:55.130Z,39.70
2017-08-18T13:04:22.653Z,40.30
2017-08-18T13:06:50.157Z,40.60
2017-08-18T13:09:17.674Z,41.10
2017-08-18T13:11:45.954Z,41.70
2017-08-18T13:14:14.235Z,41.60
2017-08-18T13:16:42.507Z,41.60
2017-08-18T13:19:10.794Z,41.70
2017-08-18T13:21:39.061Z,41.40
2017-08-18T13:24:07.346Z,41.30
2017-08-18T13:26:34.859Z,41.30
2017-08-18T13:29:02.370Z,40.90
2017-08-18T13:31:29.886Z,40.60
2017-08-18T13:33:57.383Z,41.00
2017-08-18T13:36:24.894Z,41.10
2017-08-18T13:38:52.393Z,41.20
2017-08-18T13:41:20.678Z,41.10
2017-08-18T13:43:48.173Z,41.00
2017-08-18T13:46:15.686Z,40.80
2017-08-18T13:48:43.185Z,40.80
2017-08-18T13:51:10.702Z,41.10
2017-08-18T13:53:38.965Z,40.60
2017-08-18T13:56:06.490Z,40.70
2017-08-18T13:58:33.990Z,40.60
2017-08-18T14:01:01.494Z,40.90
2017-08-18T14:03:29.026Z,40.50
2017-08-18T14:05:56.522Z,40.60
2017-08-18T14:08:24.046Z,39.70
2017-08-18T14:10:51.550Z,40.10
2017-08-18T14:13:19.078Z,40.50
2017-08-18T14:15:46.579Z,40.30
2017-08-18T14:18:14.094Z,40.20
2017-08-18T14:20:41.593Z,39.70
2017-08-18T14:23:09.107Z,40.00
2017-08-18T14:25:42.200Z,40.20
2017-08-18T14:28:09.731Z,40.20
2017-08-18T14:30:38.003Z,40.90
2017-08-18T14:33:05.512Z,40.90
2017-08-18T14:35:33.030Z,41.10
2017-08-18T14:38:01.308Z,40.70
2017-08-18T14:40:29.591Z,40.60
2017-08-18T14:42:57.850Z,40.30
2017-08-18T14:45:25.358Z,40.30
2017-08-18T14:47:52.863Z,40.00
2017-08-18T14:50:20.386Z,40.10
2017-08-18T14:52:47.900Z,39.90
2017-08-18T14:55:16.198Z,39.10
2017-08-18T14:57:43.722Z,39.10
2017-08-18T15:00:11.242Z,39.10
2017-08-18T15:02:38.738Z,39.50
2017-08-18T15:05:06.270Z,39.70
2017-08-18T15:07:33.771Z,39.30
2017-08-18T15:10:02.054Z,39.60
2017-08-18T15:12:30.351Z,39.70
2017-08-18T15:14:57.849Z,39.70
2017-08-18T15:17:25.366Z,39.90
2017-08-18T15:19:52.859Z,39.90
2017-08-18T15:22:20.374Z,39.70
2017-08-18T15:24:47.870Z,39.40
2017-08-18T15:27:15.383Z,39.00
2017-08-18T15:29:43.646Z,39.80
2017-08-18T15:32:11.167Z,39.80
2017-08-18T15:34:38.670Z,39.90
2017-08-18T15:37:06.205Z,39.70
2017-08-18T15:39:33.708Z,39.60
2017-08-18T15:42:01.215Z,39.40
2017-08-18T15:44:28.758Z,39.30
2017-08-18T15:46:56.245Z,39.50
2017-08-18T15:49:23.766Z,39.40
2017-08-18T15:51:51.270Z,39.40
2017-08-18T15:54:18.783Z,39.60
2017-08-18T15:56:46.283Z,39.30
2017-08-18T15:59:13.810Z,39.10
2017-08-18T16:01:41.301Z,38.80
2017-08-18T16:04:08.813Z,39.10
2017-08-18T16:06:36.313Z,38.60
2017-08-18T16:09:03.842Z,38.90
2017-08-18T16:11:31.338Z,38.90
2017-08-18T16:13:58.838Z,38.90
2017-08-18T16:16:26.755Z,38.50
2017-08-18T16:18:54.259Z,38.60
2017-08-18T16:21:21.789Z,38.70
2017-08-18T16:23:49.290Z,38.10
2017-08-18T16:26:16.802Z,37.80
2017-08-18T16:28:44.302Z,38.00
2017-08-18T16:31:11.826Z,38.10
2017-08-18T16:33:39.318Z,37.80
2017-08-18T16:36:06.855Z,37.90
2017-08-18T16:38:34.360Z,37.60
2017-08-18T16:41:01.895Z,37.70
2017-08-18T16:43:29.394Z,37.50
2017-08-18T16:45:56.901Z,37.30
2017-08-18T16:48:24.398Z,37.50
2017-08-18T16:50:51.935Z,37.70
2017-08-18T16:53:19.437Z,38.00
2017-08-18T16:55:46.930Z,37.70
2017-08-18T16:58:15.220Z,37.60
2017-08-18T17:00:42.718Z,37.50
2017-08-18T17:03:10.263Z,37.50
2017-08-18T17:05:37.766Z,37.90
2017-08-18T17:08:05.283Z,38.20
2017-08-18T17:10:32.774Z,38.50
2017-08-18T17:13:00.305Z,38.50
2017-08-18T17:15:27.808Z,38.90
2017-08-18T17:17:55.307Z,39.50
2017-08-18T17:20:22.838Z,40.00
2017-08-18T17:22:50.342Z,40.30
2017-08-18T17:25:17.861Z,40.50
2017-08-18T17:27:46.126Z,41.10
2017-08-18T17:30:14.411Z,41.40
2017-08-18T17:32:42.681Z,41.50
2017-08-18T17:35:10.220Z,41.50
2017-08-18T17:37:37.750Z,41.80
2017-08-18T17:40:05.269Z,42.10
2017-08-18T17:42:33.534Z,42.60
2017-08-18T17:45:01.803Z,42.90
2017-08-18T17:47:30.118Z,43.50
2017-08-18T17:49:57.622Z,43.50
2017-08-18T17:52:25.149Z,43.90
2017-08-18T17:54:52.651Z,44.30
2017-08-18T17:57:20.217Z,45.30
2017-08-18T17:59:47.726Z,45.00
2017-08-18T18:02:15.247Z,45.70
2017-08-18T18:04:43.514Z,46.10
2017-08-18T18:07:11.817Z,46.40
2017-08-18T18:09:39.317Z,46.30
2017-08-18T18:12:06.819Z,46.40
2017-08-18T18:14:35.105Z,46.30
2017-08-18T18:17:02.606Z,46.30
2017-08-18T18:19:30.138Z,46.70
2017-08-18T18:21:57.662Z,46.90
2017-08-18T18:24:25.958Z,46.60
2017-08-18T18:26:53.457Z,46.60
2017-08-18T18:29:20.975Z,46.50
2017-08-18T18:31:48.479Z,46.50
2017-08-18T18:34:16.002Z,46.80
2017-08-18T18:36:43.498Z,44.60
2017-08-18T18:39:11.051Z,44.10
2017-08-18T18:41:38.546Z,43.60
2017-08-18T18:44:06.046Z,44.00
2017-08-18T18:46:33.561Z,44.80
2017-08-18T18:49:01.054Z,45.70
2017-08-18T18:51:28.572Z,46.70
2017-08-18T18:53:56.073Z,47.60
2017-08-18T18:56:23.589Z,48.80
2017-08-18T18:58:51.090Z,51.20
2017-08-18T19:01:18.619Z,54.20
2017-08-18T19:03:46.131Z,55.40
2017-08-18T19:06:13.654Z,54.20
2017-08-18T19:08:41.918Z,56.50
2017-08-18T19:11:09.450Z,56.40
2017-08-18T19:13:36.950Z,57.00
2017-08-18T19:16:04.453Z,57.50
2017-08-18T19:18:31.976Z,57.80
2017-08-18T19:20:59.477Z,58.50
2017-08-18T19:23:26.995Z,58.80
2017-08-18T19:25:54.507Z,59.10
2017-08-18T19:28:22.027Z,59.40
2017-08-18T19:30:49.530Z,59.60
2017-08-18T19:33:17.051Z,60.00
2017-08-18T19:35:44.555Z,60.10
2017-08-18T19:38:12.082Z,60.30
2017-08-18T19:40:39.578Z,60.80
2017-08-18T19:43:07.094Z,60.80
2017-08-18T19:45:34.598Z,61.00
2017-08-18T19:48:02.122Z,61.00
2017-08-18T19:50:29.614Z,61.30
2017-08-18T19:52:57.114Z,61.20
2017-08-18T19:55:24.638Z,60.70
2017-08-18T19:57:52.139Z,60.80
2017-08-18T20:00:19.666Z,60.40
2017-08-18T20:02:47.934Z,60.80
2017-08-18T20:05:15.449Z,60.80
2017-08-18T20:07:42.940Z,60.90
2017-08-18T20:10:10.463Z,60.60
2017-08-18T20:12:37.967Z,60.50
2017-08-18T20:15:05.482Z,60.90
2017-08-18T20:17:32.988Z,60.40
2017-08-18T20:20:00.508Z,60.50
2017-08-18T20:22:28.015Z,60.40
2017-08-18T20:24:56.286Z,60.90
2017-08-18T20:27:23.803Z,60.80
2017-08-18T20:29:51.294Z,61.00
2017-08-18T20:32:18.806Z,60.80
2017-08-18T20:34:46.302Z,61.00
2017-08-18T20:37:13.813Z,60.80
2017-08-18T20:39:41.312Z,61.30
2017-08-18T20:42:08.852Z,61.30
2017-08-18T20:44:36.346Z,61.20
2017-08-18T20:47:03.859Z,61.00
2017-08-18T20:49:31.345Z,61.20
2017-08-18T20:51:58.854Z,61.30
2017-08-18T20:54:26.358Z,61.20
2017-08-18T20:56:53.845Z,61.00
2017-08-18T20:59:21.367Z,61.00
2017-08-18T21:01:48.867Z,61.20
2017-08-18T21:04:17.151Z,62.20
2017-08-18T21:06:45.410Z,61.70
2017-08-18T21:09:12.924Z,61.70
2017-08-18T21:11:40.418Z,61.90
2017-08-18T21:14:07.939Z,61.80
2017-08-18T21:16:35.446Z,61.80
2017-08-18T21:19:02.942Z,61.90
2017-08-18T21:21:30.458Z,61.60
2017-08-18T21:23:57.954Z,61.70
2017-08-18T21:26:25.466Z,61.90
2017-08-18T21:28:52.958Z,61.70
2017-08-18T21:31:21.234Z,61.60
2017-08-18T21:33:49.510Z,61.60
2017-08-18T21:36:17.022Z,61.60
2017-08-18T21:38:44.514Z,61.90
2017-08-18T21:41:12.043Z,61.80
2017-08-18T21:43:39.542Z,61.90
2017-08-18T21:46:07.039Z,61.90
2017-08-18T21:48:34.549Z,62.10
2017-08-18T21:51:02.046Z,62.20
2017-08-18T21:53:29.559Z,62.10
2017-08-18T21:55:57.063Z,62.00
2017-08-18T21:58:24.578Z,62.10
2017-08-18T22:00:52.077Z,62.30
2017-08-18T22:03:19.598Z,62.30
2017-08-18T22:05:47.105Z,62.40
2017-08-18T22:08:14.602Z,62.40
2017-08-18T22:10:42.109Z,62.40
2017-08-18T22:13:09.602Z,62.40
2017-08-18T22:15:37.118Z,62.50
2017-08-18T22:18:05.377Z,62.60
2017-08-18T22:20:32.893Z,62.60
2017-08-18T22:23:00.382Z,62.50
2017-08-18T22:25:27.914Z,62.60
2017-08-18T22:27:55.409Z,62.60
2017-08-18T22:30:22.910Z,62.70
2017-08-18T22:32:50.422Z,62.70
2017-08-18T22:35:17.910Z,62.80
2017-08-18T22:37:46.193Z,63.00
2017-08-18T22:40:13.698Z,62.90
2017-08-18T22:42:41.218Z,62.90
2017-08-18T22:45:08.726Z,62.90
2017-08-18T22:47:36.248Z,63.00
2017-08-18T22:50:03.742Z,63.10
2017-08-18T22:52:31.265Z,63.00
2017-08-18T22:54:58.763Z,62.90
2017-08-18T22:57:26.259Z,63.20
2017-08-18T22:59:53.778Z,63.20
2017-08-18T23:02:21.281Z,63.20
2017-08-18T23:04:48.810Z,63.20
2017-08-18T23:07:16.306Z,63.20
2017-08-18T23:09:43.822Z,63.30
2017-08-18T23:12:11.314Z,63.40
2017-08-18T23:14:38.837Z,63.40
2017-08-18T23:17:06.330Z,63.30
2017-08-18T23:19:33.831Z,63.20
2017-08-18T23:22:01.351Z,63.40
2017-08-18T23:24:32.558Z,63.30
2017-08-18T23:27:00.064Z,63.30
2017-08-18T23:29:27.570Z,63.10
2017-08-18T23:31:55.094Z,63.20
2017-08-18T23:34:22.586Z,63.40
2017-08-18T23:36:50.111Z,63.50
2017-08-18T23:39:17.601Z,63.30
2017-08-18T23:41:45.093Z,63.30
2017-08-18T23:44:13.365Z,63.20
2017-08-18T23:46:41.621Z,63.30
2017-08-18T23:49:09.134Z,63.20
2017-08-18T23:51:36.630Z,63.30
2017-08-18T23:54:04.145Z,63.40
2017-08-18T23:56:31.638Z,63.30
2017-08-18T23:58:59.155Z,63.30
